sensor_id;sensor_type;location;lat;lon;timestamp;pressure;altitude;pressure_sealevel;temperature;humidity
9764;BME280;4921;43.214;27.936;2023-10-13T00:01:09;101447.75;;;15.84;100.00
9764;BME280;4921;43.214;27.936;2023-10-13T00:03:39;101449.84;;;15.90;100.00
9764;BME280;4921;43.214;27.936;2023-10-13T00:06:06;101446.91;;;15.84;100.00
9764;BME280;4921;43.214;27.936;2023-10-13T00:08:34;101448.31;;;15.88;100.00
9764;BME280;4921;43.214;27.936;2023-10-13T00:11:04;101449.56;;;15.84;100.00
9764;BME280;4921;43.214;27.936;2023-10-13T00:13:31;101440.91;;;15.82;100.00
9764;BME280;4921;43.214;27.936;2023-10-13T00:16:08;101446.59;;;15.77;100.00
9764;BME280;4921;43.214;27.936;2023-10-13T00:18:44;101436.13;;;15.76;100.00
9764;BME280;4921;43.214;27.936;2023-10-13T00:21:11;101411.06;;;15.59;100.00
9764;BME280;4921;43.214;27.936;2023-10-13T00:23:46;101430.69;;;15.77;100.00
9764;BME280;4921;43.214;27.936;2023-10-13T00:26:19;101433.47;;;15.76;100.00
9764;BME280;4921;43.214;27.936;2023-10-13T00:28:52;101434.59;;;15.73;100.00
9764;BME280;4921;43.214;27.936;2023-10-13T00:31:35;101431.34;;;15.60;100.00
9764;BME280;4921;43.214;27.936;2023-10-13T00:34:05;101435.66;;;15.61;100.00
9764;BME280;4921;43.214;27.936;2023-10-13T00:36:37;101433.13;;;15.60;100.00
9764;BME280;4921;43.214;27.936;2023-10-13T00:39:13;101427.97;;;15.58;100.00
9764;BME280;4921;43.214;27.936;2023-10-13T00:41:42;101432.13;;;15.51;100.00
9764;BME280;4921;43.214;27.936;2023-10-13T00:44:22;101431.44;;;15.49;100.00
9764;BME280;4921;43.214;27.936;2023-10-13T00:46:54;101426.81;;;15.51;100.00
9764;BME280;4921;43.214;27.936;2023-10-13T00:49:23;101422.22;;;15.44;100.00
9764;BME280;4921;43.214;27.936;2023-10-13T00:51:50;101414.34;;;15.42;100.00
9764;BME280;4921;43.214;27.936;2023-10-13T00:54:19;101416.56;;;15.37;100.00
9764;BME280;4921;43.214;27.936;2023-10-13T00:56:52;101416.13;;;15.32;100.00
9764;BME280;4921;43.214;27.936;2023-10-13T00:59:30;101412.31;;;15.25;100.00
9764;BME280;4921;43.214;27.936;2023-10-13T01:02:02;101415.97;;;15.34;100.00
9764;BME280;4921;43.214;27.936;2023-10-13T01:04:50;101413.06;;;15.37;100.00
9764;BME280;4921;43.214;27.936;2023-10-13T01:07:19;101415.00;;;15.35;100.00
9764;BME280;4921;43.214;27.936;2023-10-13T01:09:47;101413.78;;;15.39;100.00
9764;BME280;4921;43.214;27.936;2023-10-13T01:12:15;101408.03;;;15.34;100.00
9764;BME280;4921;43.214;27.936;2023-10-13T01:14:41;101402.63;;;15.35;100.00
9764;BME280;4921;43.214;27.936;2023-10-13T01:17:09;101404.22;;;15.47;100.00
9764;BME280;4921;43.214;27.936;2023-10-13T01:19:36;101405.34;;;15.54;100.00
9764;BME280;4921;43.214;27.936;2023-10-13T01:22:09;101398.66;;;15.50;100.00
9764;BME280;4921;43.214;27.936;2023-10-13T01:24:37;101397.09;;;15.48;100.00
9764;BME280;4921;43.214;27.936;2023-10-13T01:27:05;101392.66;;;15.48;100.00
9764;BME280;4921;43.214;27.936;2023-10-13T01:29:40;101394.88;;;15.53;100.00
9764;BME280;4921;43.214;27.936;2023-10-13T01:32:13;101395.31;;;15.58;100.00
9764;BME280;4921;43.214;27.936;2023-10-13T01:34:39;101398.66;;;15.60;100.00
9764;BME280;4921;43.214;27.936;2023-10-13T01:37:11;101386.22;;;15.51;100.00
9764;BME280;4921;43.214;27.936;2023-10-13T01:39:38;101395.16;;;15.59;100.00
9764;BME280;4921;43.214;27.936;2023-10-13T01:42:05;101399.22;;;15.54;100.00
9764;BME280;4921;43.214;27.936;2023-10-13T01:44:32;101394.72;;;15.45;100.00
9764;BME280;4921;43.214;27.936;2023-10-13T01:46:59;101379.06;;;15.42;100.00
9764;BME280;4921;43.214;27.936;2023-10-13T01:49:31;101392.50;;;15.59;100.00
9764;BME280;4921;43.214;27.936;2023-10-13T01:52:07;101394.91;;;15.62;100.00
9764;BME280;4921;43.214;27.936;2023-10-13T01:54:36;101392.66;;;15.58;100.00
9764;BME280;4921;43.214;27.936;2023-10-13T01:57:07;101394.47;;;15.57;100.00
9764;BME280;4921;43.214;27.936;2023-10-13T01:59:39;101387.91;;;15.61;100.00
9764;BME280;4921;43.214;27.936;2023-10-13T02:02:09;101388.34;;;15.57;100.00
9764;BME280;4921;43.214;27.936;2023-10-13T02:04:38;101387.91;;;15.52;100.00
9764;BME280;4921;43.214;27.936;2023-10-13T02:07:08;101388.44;;;15.46;100.00
9764;BME280;4921;43.214;27.936;2023-10-13T02:09:40;101388.66;;;15.43;100.00
9764;BME280;4921;43.214;27.936;2023-10-13T02:12:09;101394.38;;;15.38;100.00
9764;BME280;4921;43.214;27.936;2023-10-13T02:14:36;101384.75;;;15.37;100.00
9764;BME280;4921;43.214;27.936;2023-10-13T02:17:03;101397.56;;;15.32;100.00
9764;BME280;4921;43.214;27.936;2023-10-13T02:19:38;101394.34;;;15.28;100.00
9764;BME280;4921;43.214;27.936;2023-10-13T02:22:05;101393.91;;;15.23;100.00
9764;BME280;4921;43.214;27.936;2023-10-13T02:24:35;101391.81;;;15.27;100.00
9764;BME280;4921;43.214;27.936;2023-10-13T02:27:05;101393.06;;;15.23;100.00
9764;BME280;4921;43.214;27.936;2023-10-13T02:29:40;101400.69;;;15.16;100.00
9764;BME280;4921;43.214;27.936;2023-10-13T02:32:06;101401.69;;;15.15;100.00
9764;BME280;4921;43.214;27.936;2023-10-13T02:34:38;101400.13;;;15.13;100.00
9764;BME280;4921;43.214;27.936;2023-10-13T02:37:09;101394.84;;;15.13;100.00
9764;BME280;4921;43.214;27.936;2023-10-13T02:39:36;101392.19;;;15.13;100.00
9764;BME280;4921;43.214;27.936;2023-10-13T02:42:06;101389.13;;;15.17;100.00
9764;BME280;4921;43.214;27.936;2023-10-13T02:44:33;101397.78;;;15.19;100.00
9764;BME280;4921;43.214;27.936;2023-10-13T02:47:03;101389.69;;;15.21;100.00
9764;BME280;4921;43.214;27.936;2023-10-13T02:49:40;101393.34;;;15.20;100.00
9764;BME280;4921;43.214;27.936;2023-10-13T02:52:09;101389.13;;;15.17;100.00
9764;BME280;4921;43.214;27.936;2023-10-13T02:54:36;101385.19;;;15.12;100.00
9764;BME280;4921;43.214;27.936;2023-10-13T02:57:05;101390.09;;;15.16;100.00
9764;BME280;4921;43.214;27.936;2023-10-13T02:59:32;101381.03;;;15.09;100.00
9764;BME280;4921;43.214;27.936;2023-10-13T03:02:07;101374.38;;;14.94;100.00
9764;BME280;4921;43.214;27.936;2023-10-13T03:04:44;101389.34;;;15.05;100.00
9764;BME280;4921;43.214;27.936;2023-10-13T03:07:10;101388.75;;;15.01;100.00
9764;BME280;4921;43.214;27.936;2023-10-13T03:09:41;101388.22;;;15.07;100.00
9764;BME280;4921;43.214;27.936;2023-10-13T03:12:15;101386.25;;;15.00;100.00
9764;BME280;4921;43.214;27.936;2023-10-13T03:14:42;101383.75;;;14.98;100.00
9764;BME280;4921;43.214;27.936;2023-10-13T03:17:14;101379.00;;;15.02;100.00
9764;BME280;4921;43.214;27.936;2023-10-13T03:19:42;101357.06;;;14.90;100.00
9764;BME280;4921;43.214;27.936;2023-10-13T03:22:12;101379.78;;;14.93;100.00
9764;BME280;4921;43.214;27.936;2023-10-13T03:24:42;101381.03;;;14.89;100.00
9764;BME280;4921;43.214;27.936;2023-10-13T03:27:11;101378.66;;;14.86;100.00
9764;BME280;4921;43.214;27.936;2023-10-13T03:29:42;101376.72;;;14.88;100.00
9764;BME280;4921;43.214;27.936;2023-10-13T03:32:10;101371.53;;;14.86;100.00
9764;BME280;4921;43.214;27.936;2023-10-13T03:34:42;101358.88;;;14.69;100.00
9764;BME280;4921;43.214;27.936;2023-10-13T03:37:36;101365.53;;;14.84;100.00
9764;BME280;4921;43.214;27.936;2023-10-13T03:40:05;101383.81;;;14.87;100.00
9764;BME280;4921;43.214;27.936;2023-10-13T03:42:41;101375.50;;;14.92;100.00
9764;BME280;4921;43.214;27.936;2023-10-13T03:45:09;101369.47;;;14.90;100.00
9764;BME280;4921;43.214;27.936;2023-10-13T03:47:36;101373.09;;;14.89;100.00
9764;BME280;4921;43.214;27.936;2023-10-13T03:50:06;101366.44;;;14.94;100.00
9764;BME280;4921;43.214;27.936;2023-10-13T03:52:42;101371.06;;;15.02;100.00
9764;BME280;4921;43.214;27.936;2023-10-13T03:55:10;101377.34;;;15.01;100.00
9764;BME280;4921;43.214;27.936;2023-10-13T03:57:43;101376.91;;;14.96;100.00
9764;BME280;4921;43.214;27.936;2023-10-13T04:00:16;101375.91;;;14.97;100.00
9764;BME280;4921;43.214;27.936;2023-10-13T04:02:49;101376.59;;;14.89;100.00
9764;BME280;4921;43.214;27.936;2023-10-13T04:05:36;101376.41;;;14.81;100.00
9764;BME280;4921;43.214;27.936;2023-10-13T04:08:10;101376.09;;;14.75;100.00
9764;BME280;4921;43.214;27.936;2023-10-13T04:10:55;101382.47;;;14.72;100.00
9764;BME280;4921;43.214;27.936;2023-10-13T04:13:40;101380.22;;;14.68;100.00
9764;BME280;4921;43.214;27.936;2023-10-13T04:16:24;101388.41;;;14.65;100.00
9764;BME280;4921;43.214;27.936;2023-10-13T04:19:16;101390.94;;;14.66;100.00
9764;BME280;4921;43.214;27.936;2023-10-13T04:21:50;101385.38;;;14.69;100.00
9764;BME280;4921;43.214;27.936;2023-10-13T04:24:39;101392.13;;;14.62;100.00
9764;BME280;4921;43.214;27.936;2023-10-13T04:27:20;101395.19;;;14.58;100.00
9764;BME280;4921;43.214;27.936;2023-10-13T04:30:10;101392.41;;;14.59;100.00
9764;BME280;4921;43.214;27.936;2023-10-13T04:32:45;101392.41;;;14.59;100.00
9764;BME280;4921;43.214;27.936;2023-10-13T04:35:31;101407.06;;;14.63;100.00
9764;BME280;4921;43.214;27.936;2023-10-13T04:38:14;101406.13;;;14.64;100.00
9764;BME280;4921;43.214;27.936;2023-10-13T04:40:45;101418.56;;;14.52;100.00
9764;BME280;4921;43.214;27.936;2023-10-13T04:43:27;101414.16;;;14.63;100.00
9764;BME280;4921;43.214;27.936;2023-10-13T04:46:07;101413.59;;;14.59;100.00
9764;BME280;4921;43.214;27.936;2023-10-13T04:48:50;101408.81;;;14.53;100.00
9764;BME280;4921;43.214;27.936;2023-10-13T04:51:16;101410.94;;;14.59;100.00
9764;BME280;4921;43.214;27.936;2023-10-13T04:54:16;101411.91;;;14.58;100.00
9764;BME280;4921;43.214;27.936;2023-10-13T04:56:51;101403.00;;;14.59;100.00
9764;BME280;4921;43.214;27.936;2023-10-13T04:59:46;101401.69;;;14.53;100.00
9764;BME280;4921;43.214;27.936;2023-10-13T05:02:31;101412.13;;;14.66;100.00
9764;BME280;4921;43.214;27.936;2023-10-13T05:05:15;101416.22;;;14.80;100.00
9764;BME280;4921;43.214;27.936;2023-10-13T05:08:08;101417.47;;;14.76;100.00
9764;BME280;4921;43.214;27.936;2023-10-13T05:10:54;101415.81;;;14.75;100.00
9764;BME280;4921;43.214;27.936;2023-10-13T05:13:39;101405.91;;;14.77;100.00
9764;BME280;4921;43.214;27.936;2023-10-13T05:16:23;101413.91;;;14.86;100.00
9764;BME280;4921;43.214;27.936;2023-10-13T05:19:19;101416.31;;;14.89;100.00
9764;BME280;4921;43.214;27.936;2023-10-13T05:22:04;101428.69;;;14.89;100.00
9764;BME280;4921;43.214;27.936;2023-10-13T05:24:48;101435.22;;;15.05;100.00
9764;BME280;4921;43.214;27.936;2023-10-13T05:27:34;101441.22;;;15.07;100.00
9764;BME280;4921;43.214;27.936;2023-10-13T05:30:18;101443.16;;;15.05;100.00
9764;BME280;4921;43.214;27.936;2023-10-13T05:33:03;101440.13;;;15.10;100.00
9764;BME280;4921;43.214;27.936;2023-10-13T05:35:50;101445.16;;;15.13;100.00
9764;BME280;4921;43.214;27.936;2023-10-13T05:38:34;101439.19;;;15.20;100.00
9764;BME280;4921;43.214;27.936;2023-10-13T05:41:27;101441.47;;;15.25;100.00
9764;BME280;4921;43.214;27.936;2023-10-13T05:44:13;101444.00;;;15.26;100.00
9764;BME280;4921;43.214;27.936;2023-10-13T05:46:57;101450.44;;;15.34;100.00
9764;BME280;4921;43.214;27.936;2023-10-13T05:50:10;101453.03;;;15.45;100.00
9764;BME280;4921;43.214;27.936;2023-10-13T05:52:54;101445.06;;;15.45;100.00
9764;BME280;4921;43.214;27.936;2023-10-13T05:55:38;101456.59;;;15.64;100.00
9764;BME280;4921;43.214;27.936;2023-10-13T05:58:22;101466.25;;;15.75;100.00
9764;BME280;4921;43.214;27.936;2023-10-13T06:01:13;101459.31;;;15.74;100.00
9764;BME280;4921;43.214;27.936;2023-10-13T06:03:57;101470.22;;;15.90;100.00
9764;BME280;4921;43.214;27.936;2023-10-13T06:06:42;101472.34;;;15.96;100.00
9764;BME280;4921;43.214;27.936;2023-10-13T06:09:26;101460.59;;;15.98;100.00
9764;BME280;4921;43.214;27.936;2023-10-13T06:12:11;101470.84;;;16.13;100.00
9764;BME280;4921;43.214;27.936;2023-10-13T06:14:55;101464.56;;;16.14;100.00
9764;BME280;4921;43.214;27.936;2023-10-13T06:17:41;101459.53;;;16.11;100.00
9764;BME280;4921;43.214;27.936;2023-10-13T06:20:26;101479.66;;;16.23;100.00
9764;BME280;4921;43.214;27.936;2023-10-13T06:23:10;101468.38;;;16.30;100.00
9764;BME280;4921;43.214;27.936;2023-10-13T06:25:55;101469.63;;;16.36;100.00
9764;BME280;4921;43.214;27.936;2023-10-13T06:28:39;101470.31;;;16.38;100.00
9764;BME280;4921;43.214;27.936;2023-10-13T06:31:13;101474.38;;;16.42;100.00
9764;BME280;4921;43.214;27.936;2023-10-13T06:33:48;101475.63;;;16.38;100.00
9764;BME280;4921;43.214;27.936;2023-10-13T06:36:15;101472.31;;;16.45;100.00
9764;BME280;4921;43.214;27.936;2023-10-13T06:38:43;101474.81;;;16.56;100.00
9764;BME280;4921;43.214;27.936;2023-10-13T06:41:10;101480.03;;;16.58;100.00
9764;BME280;4921;43.214;27.936;2023-10-13T06:43:45;101476.09;;;16.71;100.00
9764;BME280;4921;43.214;27.936;2023-10-13T06:46:25;101465.72;;;16.78;100.00
9764;BME280;4921;43.214;27.936;2023-10-13T06:48:55;101470.34;;;16.86;100.00
9764;BME280;4921;43.214;27.936;2023-10-13T06:51:25;101468.94;;;16.91;100.00
9764;BME280;4921;43.214;27.936;2023-10-13T06:53:56;101469.91;;;17.00;100.00
9764;BME280;4921;43.214;27.936;2023-10-13T06:56:23;101453.56;;;16.95;100.00
9764;BME280;4921;43.214;27.936;2023-10-13T06:58:54;101462.34;;;17.14;100.00
9764;BME280;4921;43.214;27.936;2023-10-13T07:01:25;101468.03;;;17.29;100.00
9764;BME280;4921;43.214;27.936;2023-10-13T07:03:52;101481.59;;;17.35;100.00
9764;BME280;4921;43.214;27.936;2023-10-13T07:06:21;101481.28;;;17.48;100.00
9764;BME280;4921;43.214;27.936;2023-10-13T07:08:48;101483.94;;;17.48;100.00
9764;BME280;4921;43.214;27.936;2023-10-13T07:11:19;101474.38;;;17.65;100.00
9764;BME280;4921;43.214;27.936;2023-10-13T07:14:00;101467.81;;;17.86;100.00
9764;BME280;4921;43.214;27.936;2023-10-13T07:16:36;101473.19;;;18.04;100.00
9764;BME280;4921;43.214;27.936;2023-10-13T07:19:03;101476.25;;;18.09;100.00
9764;BME280;4921;43.214;27.936;2023-10-13T07:21:33;101472.53;;;18.19;100.00
9764;BME280;4921;43.214;27.936;2023-10-13T07:24:00;101469.00;;;18.28;100.00
9764;BME280;4921;43.214;27.936;2023-10-13T07:26:34;101469.44;;;18.42;100.00
9764;BME280;4921;43.214;27.936;2023-10-13T07:29:06;101464.75;;;18.53;100.00
9764;BME280;4921;43.214;27.936;2023-10-13T07:31:34;101467.19;;;18.64;100.00
9764;BME280;4921;43.214;27.936;2023-10-13T07:34:03;101472.22;;;18.67;100.00
9764;BME280;4921;43.214;27.936;2023-10-13T07:36:39;101469.69;;;18.66;100.00
9764;BME280;4921;43.214;27.936;2023-10-13T07:39:08;101474.31;;;18.81;100.00
9764;BME280;4921;43.214;27.936;2023-10-13T07:41:51;101473.56;;;18.89;100.00
9764;BME280;4921;43.214;27.936;2023-10-13T07:44:19;101470.78;;;18.98;100.00
9764;BME280;4921;43.214;27.936;2023-10-13T07:46:52;101471.84;;;19.06;100.00
9764;BME280;4921;43.214;27.936;2023-10-13T07:49:30;101471.06;;;19.13;100.00
9764;BME280;4921;43.214;27.936;2023-10-13T07:52:06;101453.44;;;19.20;100.00
9764;BME280;4921;43.214;27.936;2023-10-13T07:54:50;101463.19;;;19.29;100.00
9764;BME280;4921;43.214;27.936;2023-10-13T07:57:25;101462.28;;;19.38;100.00
9764;BME280;4921;43.214;27.936;2023-10-13T07:59:55;101455.97;;;19.47;100.00
9764;BME280;4921;43.214;27.936;2023-10-13T08:02:34;101459.38;;;19.57;100.00
9764;BME280;4921;43.214;27.936;2023-10-13T08:05:14;101463.59;;;19.68;100.00
9764;BME280;4921;43.214;27.936;2023-10-13T08:07:51;101459.97;;;19.77;100.00
9764;BME280;4921;43.214;27.936;2023-10-13T08:10:18;101460.66;;;19.87;100.00
9764;BME280;4921;43.214;27.936;2023-10-13T08:12:50;101462.38;;;19.96;100.00
9764;BME280;4921;43.214;27.936;2023-10-13T08:15:20;101464.75;;;20.07;100.00
9764;BME280;4921;43.214;27.936;2023-10-13T08:17:57;101455.75;;;20.16;100.00
9764;BME280;4921;43.214;27.936;2023-10-13T08:20:30;101446.28;;;20.22;100.00
9764;BME280;4921;43.214;27.936;2023-10-13T08:23:05;101455.84;;;20.48;100.00
9764;BME280;4921;43.214;27.936;2023-10-13T08:25:40;101463.84;;;20.65;100.00
9764;BME280;4921;43.214;27.936;2023-10-13T08:28:33;101457.69;;;20.80;100.00
9764;BME280;4921;43.214;27.936;2023-10-13T08:31:19;101461.50;;;21.02;100.00
9764;BME280;4921;43.214;27.936;2023-10-13T08:33:48;101456.66;;;21.21;94.44
9764;BME280;4921;43.214;27.936;2023-10-13T08:36:15;101444.75;;;21.32;90.18
9764;BME280;4921;43.214;27.936;2023-10-13T08:38:55;101451.59;;;21.43;85.08
9764;BME280;4921;43.214;27.936;2023-10-13T08:41:22;101455.22;;;21.58;96.10
9764;BME280;4921;43.214;27.936;2023-10-13T08:44:04;101446.69;;;21.62;84.12
9764;BME280;4921;43.214;27.936;2023-10-13T08:46:32;101452.31;;;21.67;75.57
9764;BME280;4921;43.214;27.936;2023-10-13T08:49:25;101452.31;;;21.75;69.77
9764;BME280;4921;43.214;27.936;2023-10-13T08:51:56;101450.47;;;21.84;67.77
9764;BME280;4921;43.214;27.936;2023-10-13T08:54:35;101457.13;;;21.88;62.95
9764;BME280;4921;43.214;27.936;2023-10-13T08:57:11;101464.78;;;21.99;60.48
9764;BME280;4921;43.214;27.936;2023-10-13T08:59:58;101456.69;;;22.07;59.39
9764;BME280;4921;43.214;27.936;2023-10-13T09:02:45;101454.91;;;21.99;62.82
9764;BME280;4921;43.214;27.936;2023-10-13T09:05:43;101454.34;;;22.04;65.86
9764;BME280;4921;43.214;27.936;2023-10-13T09:08:26;101454.41;;;21.96;69.60
9764;BME280;4921;43.214;27.936;2023-10-13T09:11:03;101447.22;;;21.96;70.91
9764;BME280;4921;43.214;27.936;2023-10-13T09:13:38;101442.47;;;22.07;73.93
9764;BME280;4921;43.214;27.936;2023-10-13T09:16:13;101448.97;;;22.12;77.21
9764;BME280;4921;43.214;27.936;2023-10-13T09:18:48;101464.69;;;22.15;83.18
9764;BME280;4921;43.214;27.936;2023-10-13T09:21:18;101447.03;;;21.98;87.69
9764;BME280;4921;43.214;27.936;2023-10-13T09:24:03;101462.16;;;21.91;91.28
9764;BME280;4921;43.214;27.936;2023-10-13T09:26:48;101453.69;;;22.02;90.10
9764;BME280;4921;43.214;27.936;2023-10-13T09:29:19;101455.84;;;21.76;93.83
9764;BME280;4921;43.214;27.936;2023-10-13T09:31:47;101452.47;;;21.74;93.84
9764;BME280;4921;43.214;27.936;2023-10-13T09:34:21;101459.75;;;21.57;94.44
9764;BME280;4921;43.214;27.936;2023-10-13T09:36:57;101455.09;;;21.35;96.65
9764;BME280;4921;43.214;27.936;2023-10-13T09:39:24;101457.19;;;21.09;100.00
9764;BME280;4921;43.214;27.936;2023-10-13T09:42:08;101456.16;;;21.02;100.00
9764;BME280;4921;43.214;27.936;2023-10-13T09:44:36;101450.66;;;20.87;100.00
9764;BME280;4921;43.214;27.936;2023-10-13T09:47:10;101450.97;;;20.92;100.00
9764;BME280;4921;43.214;27.936;2023-10-13T09:49:44;101439.91;;;21.27;100.00
9764;BME280;4921;43.214;27.936;2023-10-13T09:52:14;101434.09;;;21.24;100.00
9764;BME280;4921;43.214;27.936;2023-10-13T09:54:50;101431.44;;;21.08;100.00
9764;BME280;4921;43.214;27.936;2023-10-13T09:57:29;101433.63;;;21.04;100.00
9764;BME280;4921;43.214;27.936;2023-10-13T10:00:08;101423.25;;;20.77;100.00
9764;BME280;4921;43.214;27.936;2023-10-13T10:02:55;101432.28;;;20.76;100.00
9764;BME280;4921;43.214;27.936;2023-10-13T10:05:39;101427.56;;;20.94;100.00
9764;BME280;4921;43.214;27.936;2023-10-13T10:08:07;101422.06;;;20.88;100.00
9764;BME280;4921;43.214;27.936;2023-10-13T10:10:48;101419.56;;;20.86;100.00
9764;BME280;4921;43.214;27.936;2023-10-13T10:13:26;101420.25;;;21.04;100.00
9764;BME280;4921;43.214;27.936;2023-10-13T10:16:03;101423.41;;;21.08;100.00
9764;BME280;4921;43.214;27.936;2023-10-13T10:18:40;101430.94;;;20.88;100.00
9764;BME280;4921;43.214;27.936;2023-10-13T10:21:07;101422.28;;;20.70;100.00
9764;BME280;4921;43.214;27.936;2023-10-13T10:23:37;101415.41;;;20.35;100.00
9764;BME280;4921;43.214;27.936;2023-10-13T10:26:12;101424.91;;;20.22;100.00
9764;BME280;4921;43.214;27.936;2023-10-13T10:28:43;101424.50;;;20.17;100.00
9764;BME280;4921;43.214;27.936;2023-10-13T10:31:11;101413.53;;;20.28;100.00
9764;BME280;4921;43.214;27.936;2023-10-13T10:33:40;101415.59;;;20.42;100.00
9764;BME280;4921;43.214;27.936;2023-10-13T10:36:07;101423.09;;;20.55;100.00
9764;BME280;4921;43.214;27.936;2023-10-13T10:38:51;101418.09;;;20.68;100.00
9764;BME280;4921;43.214;27.936;2023-10-13T10:41:25;101406.72;;;20.66;100.00
9764;BME280;4921;43.214;27.936;2023-10-13T10:43:56;101409.72;;;20.55;100.00
9764;BME280;4921;43.214;27.936;2023-10-13T10:46:28;101407.56;;;20.58;100.00
9764;BME280;4921;43.214;27.936;2023-10-13T10:49:04;101403.38;;;20.72;100.00
9764;BME280;4921;43.214;27.936;2023-10-13T10:51:36;101406.91;;;20.72;100.00
9764;BME280;4921;43.214;27.936;2023-10-13T10:54:18;101397.84;;;20.89;100.00
9764;BME280;4921;43.214;27.936;2023-10-13T10:56:46;101389.19;;;20.63;100.00
9764;BME280;4921;43.214;27.936;2023-10-13T10:59:19;101401.19;;;20.67;100.00
9764;BME280;4921;43.214;27.936;2023-10-13T11:01:50;101400.19;;;20.76;100.00
9764;BME280;4921;43.214;27.936;2023-10-13T11:04:17;101394.63;;;21.02;100.00
9764;BME280;4921;43.214;27.936;2023-10-13T11:06:51;101402.16;;;20.98;100.00
9764;BME280;4921;43.214;27.936;2023-10-13T11:09:24;101403.53;;;20.86;100.00
9764;BME280;4921;43.214;27.936;2023-10-13T11:12:08;101400.16;;;20.92;100.00
9764;BME280;4921;43.214;27.936;2023-10-13T11:14:42;101394.50;;;21.03;100.00
9764;BME280;4921;43.214;27.936;2023-10-13T11:17:19;101401.13;;;21.23;100.00
9764;BME280;4921;43.214;27.936;2023-10-13T11:19:50;101406.38;;;21.09;100.00
9764;BME280;4921;43.214;27.936;2023-10-13T11:22:18;101394.28;;;21.21;100.00
9764;BME280;4921;43.214;27.936;2023-10-13T11:25:07;101385.38;;;21.37;100.00
9764;BME280;4921;43.214;27.936;2023-10-13T11:27:36;101381.53;;;21.39;100.00
9764;BME280;4921;43.214;27.936;2023-10-13T11:30:22;101376.31;;;21.38;100.00
9764;BME280;4921;43.214;27.936;2023-10-13T11:32:59;101388.78;;;21.61;100.00
9764;BME280;4921;43.214;27.936;2023-10-13T11:35:26;101386.06;;;21.69;100.00
9764;BME280;4921;43.214;27.936;2023-10-13T11:38:14;101388.00;;;21.45;100.00
9764;BME280;4921;43.214;27.936;2023-10-13T11:40:51;101389.22;;;21.73;100.00
9764;BME280;4921;43.214;27.936;2023-10-13T11:43:32;101388.56;;;21.71;100.00
9764;BME280;4921;43.214;27.936;2023-10-13T11:46:12;101393.75;;;21.72;99.36
9764;BME280;4921;43.214;27.936;2023-10-13T11:48:40;101389.28;;;21.57;100.00
9764;BME280;4921;43.214;27.936;2023-10-13T11:51:08;101393.41;;;21.37;100.00
9764;BME280;4921;43.214;27.936;2023-10-13T11:53:43;101384.97;;;21.56;99.95
9764;BME280;4921;43.214;27.936;2023-10-13T11:56:10;101389.75;;;21.68;100.00
9764;BME280;4921;43.214;27.936;2023-10-13T11:58:40;101391.16;;;21.56;100.00
9764;BME280;4921;43.214;27.936;2023-10-13T12:01:07;101391.81;;;21.58;100.00
9764;BME280;4921;43.214;27.936;2023-10-13T12:03:49;101393.13;;;21.62;100.00
9764;BME280;4921;43.214;27.936;2023-10-13T12:06:36;101391.06;;;21.72;99.65
9764;BME280;4921;43.214;27.936;2023-10-13T12:09:12;101386.47;;;21.89;99.12
9764;BME280;4921;43.214;27.936;2023-10-13T12:12:00;101396.69;;;21.47;100.00
9764;BME280;4921;43.214;27.936;2023-10-13T12:14:29;101396.84;;;21.53;100.00
9764;BME280;4921;43.214;27.936;2023-10-13T12:17:02;101404.59;;;21.40;100.00
9764;BME280;4921;43.214;27.936;2023-10-13T12:19:37;101400.44;;;21.30;100.00
9764;BME280;4921;43.214;27.936;2023-10-13T12:22:06;101400.78;;;21.35;100.00
9764;BME280;4921;43.214;27.936;2023-10-13T12:24:34;101391.59;;;21.21;100.00
9764;BME280;4921;43.214;27.936;2023-10-13T12:27:08;101388.75;;;21.31;100.00
9764;BME280;4921;43.214;27.936;2023-10-13T12:29:45;101384.25;;;21.23;100.00
9764;BME280;4921;43.214;27.936;2023-10-13T12:32:13;101397.28;;;21.26;100.00
9764;BME280;4921;43.214;27.936;2023-10-13T12:34:41;101394.47;;;21.19;100.00
9764;BME280;4921;43.214;27.936;2023-10-13T12:37:27;101387.63;;;21.17;100.00
9764;BME280;4921;43.214;27.936;2023-10-13T12:40:17;101392.94;;;21.25;100.00
9764;BME280;4921;43.214;27.936;2023-10-13T12:43:02;101397.41;;;21.41;100.00
9764;BME280;4921;43.214;27.936;2023-10-13T12:45:48;101391.56;;;21.29;100.00
9764;BME280;4921;43.214;27.936;2023-10-13T12:48:34;101388.56;;;21.32;100.00
9764;BME280;4921;43.214;27.936;2023-10-13T12:51:20;101391.28;;;21.24;100.00
9764;BME280;4921;43.214;27.936;2023-10-13T12:54:06;101386.81;;;20.84;100.00
9764;BME280;4921;43.214;27.936;2023-10-13T12:56:40;101400.34;;;20.91;100.00
9764;BME280;4921;43.214;27.936;2023-10-13T12:59:08;101394.66;;;20.86;100.00
9764;BME280;4921;43.214;27.936;2023-10-13T13:01:39;101403.69;;;20.93;100.00
9764;BME280;4921;43.214;27.936;2023-10-13T13:04:08;101404.66;;;21.16;100.00
9764;BME280;4921;43.214;27.936;2023-10-13T13:06:39;101392.59;;;21.20;100.00
9764;BME280;4921;43.214;27.936;2023-10-13T13:09:06;101383.91;;;21.26;100.00
9764;BME280;4921;43.214;27.936;2023-10-13T13:11:35;101383.94;;;21.10;100.00
9764;BME280;4921;43.214;27.936;2023-10-13T13:14:05;101387.31;;;21.04;100.00
9764;BME280;4921;43.214;27.936;2023-10-13T13:16:35;101376.75;;;21.02;100.00
9764;BME280;4921;43.214;27.936;2023-10-13T13:19:05;101375.06;;;21.17;100.00
9764;BME280;4921;43.214;27.936;2023-10-13T13:21:37;101379.78;;;21.15;100.00
9764;BME280;4921;43.214;27.936;2023-10-13T13:24:06;101383.59;;;21.21;100.00
9764;BME280;4921;43.214;27.936;2023-10-13T13:26:37;101388.94;;;21.21;100.00
9764;BME280;4921;43.214;27.936;2023-10-13T13:29:07;101386.59;;;21.26;100.00
9764;BME280;4921;43.214;27.936;2023-10-13T13:31:35;101389.44;;;21.16;100.00